createdAt,value
2018-09-28T00:00:40.077Z,47.45
2018-09-28T00:03:16.428Z,48.47
2018-09-28T00:05:51.416Z,47.46
2018-09-28T00:08:26.551Z,49.28
2018-09-28T00:11:01.618Z,47.96
2018-09-28T00:13:36.605Z,48.04
2018-09-28T00:16:11.597Z,46.73
2018-09-28T00:18:46.340Z,48.72
2018-09-28T00:21:21.179Z,46.28
2018-09-28T00:23:55.973Z,48.52
2018-09-28T00:26:30.788Z,50.45
2018-09-28T00:29:05.552Z,50.98
2018-09-28T00:31:40.312Z,52.17
2018-09-28T00:34:15.086Z,53.39
2018-09-28T00:36:51.172Z,52.12
2018-09-28T00:39:27.095Z,52.23
2018-09-28T00:42:03.189Z,51.10
2018-09-28T00:44:39.055Z,49.36
2018-09-28T00:47:15.131Z,50.38
2018-09-28T00:49:51.005Z,48.58
2018-09-28T00:52:27.727Z,49.87
2018-09-28T00:55:03.489Z,49.94
2018-09-28T00:57:39.404Z,52.67
2018-09-28T01:00:15.187Z,54.61
2018-09-28T01:02:51.036Z,55.10
2018-09-28T01:05:26.802Z,55.56
2018-09-28T01:08:02.588Z,53.77
2018-09-28T01:10:38.520Z,51.27
2018-09-28T01:13:14.455Z,52.04
2018-09-28T01:15:50.370Z,51.27
2018-09-28T01:18:26.065Z,51.58
2018-09-28T01:21:01.836Z,52.05
2018-09-28T01:23:37.672Z,52.25
2018-09-28T01:26:13.508Z,52.65
2018-09-28T01:28:49.300Z,53.02
2018-09-28T01:31:25.064Z,53.61
2018-09-28T01:34:00.895Z,53.83
2018-09-28T01:36:36.705Z,54.79
2018-09-28T01:39:12.633Z,53.48
2018-09-28T01:41:48.432Z,53.24
2018-09-28T01:44:24.257Z,51.67
2018-09-28T01:47:00.069Z,52.47
2018-09-28T01:49:35.913Z,54.09
2018-09-28T01:52:11.719Z,55.94
2018-09-28T01:54:47.581Z,57.87
2018-09-28T01:57:23.551Z,57.30
2018-09-28T01:59:59.475Z,56.49
2018-09-28T02:02:35.372Z,55.11
2018-09-28T02:05:11.391Z,58.57
2018-09-28T02:07:47.374Z,57.26
2018-09-28T02:10:23.257Z,57.48
2018-09-28T02:12:59.164Z,56.18
2018-09-28T02:15:34.873Z,57.42
2018-09-28T02:18:10.685Z,57.67
2018-09-28T02:20:46.501Z,56.69
2018-09-28T02:23:22.283Z,56.69
2018-09-28T02:25:58.096Z,56.65
2018-09-28T02:28:33.900Z,57.57
2018-09-28T02:31:10.004Z,58.37
2018-09-28T02:33:45.889Z,58.80
2018-09-28T02:36:21.793Z,57.50
2018-09-28T02:38:58.058Z,57.69
2018-09-28T02:41:33.979Z,57.92
2018-09-28T02:44:09.777Z,58.14
2018-09-28T02:46:45.587Z,57.06
2018-09-28T02:49:20.460Z,56.23
2018-09-28T02:51:55.276Z,55.79
2018-09-28T02:54:29.941Z,55.67
2018-09-28T02:57:04.796Z,54.74
2018-09-28T02:59:39.800Z,53.58
2018-09-28T03:02:14.659Z,54.22
2018-09-28T03:04:49.417Z,53.67
2018-09-28T03:07:24.236Z,55.26
2018-09-28T03:09:59.062Z,56.44
2018-09-28T03:12:34.042Z,57.50
2018-09-28T03:15:09.047Z,58.43
2018-09-28T03:17:43.998Z,59.50
2018-09-28T03:20:18.761Z,58.73
2018-09-28T03:22:53.710Z,59.47
2018-09-28T03:25:28.460Z,57.87
2018-09-28T03:28:03.277Z,59.17
2018-09-28T03:30:38.167Z,59.38
2018-09-28T03:33:12.975Z,59.32
2018-09-28T03:35:47.960Z,59.65
2018-09-28T03:38:23.000Z,59.81
2018-09-28T03:40:57.786Z,60.18
2018-09-28T03:43:32.583Z,59.74
2018-09-28T03:46:07.953Z,58.53
2018-09-28T03:48:42.832Z,59.86
2018-09-28T03:51:17.787Z,57.53
2018-09-28T03:53:52.549Z,59.31
2018-09-28T03:56:27.654Z,61.35
2018-09-28T03:59:02.532Z,61.28
2018-09-28T04:01:37.263Z,59.54
2018-09-28T04:04:12.127Z,59.62
2018-09-28T04:06:47.085Z,60.24
2018-09-28T04:09:21.888Z,62.19
2018-09-28T04:11:56.682Z,61.89
2018-09-28T04:14:31.501Z,61.30
2018-09-28T04:17:06.543Z,61.38
2018-09-28T04:19:41.528Z,61.60
2018-09-28T04:22:16.304Z,62.35
2018-09-28T04:24:51.103Z,64.70
2018-09-28T04:27:26.044Z,61.58
2018-09-28T04:30:03.879Z,62.23
2018-09-28T04:32:38.769Z,61.34
2018-09-28T04:35:13.552Z,62.47
2018-09-28T04:37:48.323Z,62.80
2018-09-28T04:40:23.136Z,61.65
2018-09-28T04:42:57.941Z,62.07
2018-09-28T04:45:32.766Z,62.26
2018-09-28T04:48:07.885Z,62.78
2018-09-28T04:50:42.800Z,61.30
2018-09-28T04:53:17.471Z,59.00
2018-09-28T04:55:52.315Z,58.09
2018-09-28T04:58:27.225Z,56.78
2018-09-28T05:01:02.806Z,56.05
2018-09-28T05:03:37.643Z,56.00
2018-09-28T05:06:12.426Z,55.15
2018-09-28T05:08:47.348Z,55.34
2018-09-28T05:11:22.128Z,54.36
2018-09-28T05:13:56.838Z,54.51
2018-09-28T05:16:31.659Z,54.43
2018-09-28T05:19:06.701Z,54.40
2018-09-28T05:21:41.834Z,54.92
2018-09-28T05:24:16.754Z,55.06
2018-09-28T05:26:51.583Z,54.18
2018-09-28T05:29:26.522Z,52.81
2018-09-28T05:32:01.382Z,51.37
2018-09-28T05:34:36.321Z,50.88
2018-09-28T05:37:11.214Z,47.50
2018-09-28T05:39:46.249Z,48.60
2018-09-28T05:42:21.068Z,49.46
2018-09-28T05:44:55.741Z,46.80
2018-09-28T05:47:30.520Z,46.43
2018-09-28T05:50:05.217Z,45.26
2018-09-28T05:52:40.155Z,44.72
2018-09-28T05:55:14.841Z,44.82
2018-09-28T05:57:51.743Z,46.27
2018-09-28T06:00:32.395Z,43.07
2018-09-28T06:03:14.889Z,42.18
2018-09-28T06:05:54.915Z,43.80
2018-09-28T06:08:29.877Z,42.06
2018-09-28T06:11:04.792Z,42.05
2018-09-28T06:13:39.736Z,42.39
2018-09-28T06:16:14.530Z,40.30
2018-09-28T06:18:49.416Z,39.26
2018-09-28T06:21:24.604Z,38.88
2018-09-28T06:23:59.585Z,39.15
2018-09-28T06:26:39.769Z,40.67
2018-09-28T06:29:14.829Z,37.50
2018-09-28T06:31:49.802Z,37.32
2018-09-28T06:34:24.836Z,36.02
2018-09-28T06:36:59.608Z,35.21
2018-09-28T06:39:34.635Z,33.75
2018-09-28T06:42:09.578Z,33.22
2018-09-28T06:44:44.983Z,33.48
2018-09-28T06:47:20.052Z,31.66
2018-09-28T06:49:55.161Z,32.25
2018-09-28T06:52:29.948Z,31.03
2018-09-28T06:55:04.762Z,31.25
2018-09-28T06:57:39.526Z,31.91
2018-09-28T07:00:14.355Z,31.50
2018-09-28T07:02:50.591Z,31.44
2018-09-28T07:05:26.387Z,31.16
2018-09-28T07:08:02.252Z,30.35
2018-09-28T07:10:38.113Z,29.69
2018-09-28T07:13:13.926Z,30.25
2018-09-28T07:15:51.792Z,29.51
2018-09-28T07:18:27.581Z,29.09
2018-09-28T07:21:03.825Z,28.62
2018-09-28T07:23:39.905Z,28.50
2018-09-28T07:26:15.888Z,27.10
2018-09-28T07:28:51.796Z,27.53
2018-09-28T07:31:27.729Z,27.75
2018-09-28T07:34:04.003Z,26.11
2018-09-28T07:36:40.038Z,26.40
2018-09-28T07:39:18.688Z,25.48
2018-09-28T07:41:54.680Z,25.53
2018-09-28T07:44:30.756Z,25.02
2018-09-28T07:47:07.347Z,25.24
2018-09-28T07:49:43.317Z,24.90
2018-09-28T07:52:19.283Z,24.94
2018-09-28T07:54:55.088Z,23.84
2018-09-28T07:57:30.992Z,23.80
2018-09-28T08:00:06.826Z,23.41
2018-09-28T08:02:42.755Z,22.59
2018-09-28T08:05:18.533Z,22.55
2018-09-28T08:07:54.472Z,22.33
2018-09-28T08:10:30.283Z,21.27
2018-09-28T08:13:06.254Z,20.28
2018-09-28T08:15:42.330Z,20.01
2018-09-28T08:18:19.603Z,19.46
2018-09-28T08:20:55.945Z,18.68
2018-09-28T08:23:31.977Z,19.62
2018-09-28T08:26:08.116Z,15.07
2018-09-28T08:28:44.201Z,16.33
2018-09-28T08:31:20.265Z,15.45
2018-09-28T08:35:20.221Z,13.08
2018-09-28T08:37:55.973Z,13.15
2018-09-28T08:40:31.824Z,13.50
2018-09-28T08:43:07.669Z,12.56
2018-09-28T08:45:43.494Z,13.31
2018-09-28T08:48:19.442Z,12.59
2018-09-28T08:50:55.392Z,11.91
2018-09-28T08:53:31.352Z,12.37
2018-09-28T08:56:09.137Z,10.63
2018-09-28T08:58:45.792Z,11.21
2018-09-28T09:01:22.288Z,10.00
2018-09-28T09:03:58.102Z,11.11
2018-09-28T09:06:33.982Z,10.36
2018-09-28T09:09:12.029Z,13.37
2018-09-28T09:11:48.018Z,11.41
2018-09-28T09:14:23.811Z,10.65
2018-09-28T09:16:59.653Z,11.27
2018-09-28T09:19:35.467Z,10.25
2018-09-28T09:22:11.403Z,10.44
2018-09-28T09:24:47.389Z,10.52
2018-09-28T09:27:23.351Z,10.71
2018-09-28T09:29:59.192Z,10.38
2018-09-28T09:32:35.172Z,10.90
2018-09-28T09:35:11.031Z,10.29
2018-09-28T09:37:47.011Z,9.83
2018-09-28T09:40:22.816Z,9.78
2018-09-28T09:42:58.735Z,10.98
2018-09-28T09:45:34.517Z,9.35
2018-09-28T09:48:10.468Z,10.97
2018-09-28T09:50:46.264Z,9.27
2018-09-28T09:53:22.161Z,9.20
2018-09-28T09:55:58.095Z,10.18
2018-09-28T09:58:33.919Z,10.35
2018-09-28T10:01:14.174Z,8.71
2018-09-28T10:03:51.740Z,8.61
2018-09-28T10:06:27.576Z,9.43
2018-09-28T10:09:04.317Z,10.69
2018-09-28T10:11:40.101Z,8.97
2018-09-28T10:14:15.936Z,8.61
2018-09-28T10:16:51.754Z,7.50
2018-09-28T10:19:27.698Z,8.31
2018-09-28T10:22:03.610Z,8.38
2018-09-28T10:24:39.603Z,8.50
2018-09-28T10:27:15.524Z,8.34
2018-09-28T10:29:51.535Z,8.42
2018-09-28T10:32:27.309Z,9.87
2018-09-28T10:35:03.161Z,8.86
2018-09-28T10:37:38.946Z,8.77
2018-09-28T10:40:14.963Z,9.99
2018-09-28T10:42:50.889Z,8.58
2018-09-28T10:45:26.803Z,9.38
2018-09-28T10:48:02.854Z,9.20
2018-09-28T10:50:38.708Z,7.54
2018-09-28T10:53:14.525Z,8.16
2018-09-28T10:55:50.440Z,8.38
2018-09-28T10:58:26.423Z,7.56
2018-09-28T11:01:02.300Z,7.89
2018-09-28T11:03:38.181Z,7.85
2018-09-28T11:06:14.328Z,8.56
2018-09-28T11:08:50.148Z,7.28
2018-09-28T11:11:26.322Z,7.39
2018-09-28T11:14:02.121Z,8.23
2018-09-28T11:16:37.973Z,8.18
2018-09-28T11:19:13.921Z,8.76
2018-09-28T11:21:49.808Z,8.13
2018-09-28T11:24:26.657Z,8.38
2018-09-28T11:27:02.533Z,7.55
2018-09-28T11:29:38.768Z,8.30
2018-09-28T11:32:14.624Z,7.39
2018-09-28T11:34:50.414Z,8.05
2018-09-28T11:37:26.401Z,7.88
2018-09-28T11:40:02.215Z,7.37
2018-09-28T11:42:38.419Z,7.60
2018-09-28T11:45:14.360Z,8.15
2018-09-28T11:47:50.466Z,7.20
2018-09-28T11:50:26.208Z,7.77
2018-09-28T11:53:02.010Z,7.87
2018-09-28T11:55:37.957Z,7.72
2018-09-28T11:58:13.854Z,8.41
2018-09-28T12:00:50.012Z,8.13
2018-09-28T12:03:25.992Z,8.91
2018-09-28T12:06:02.108Z,10.06
2018-09-28T12:08:37.976Z,8.47
2018-09-28T12:11:13.722Z,8.80
2018-09-28T12:13:49.747Z,7.91
2018-09-28T12:16:25.562Z,7.58
2018-09-28T12:19:01.368Z,7.43
2018-09-28T12:21:37.592Z,8.19
2018-09-28T12:24:13.770Z,8.80
2018-09-28T12:26:50.048Z,8.88
2018-09-28T12:29:25.872Z,7.85
2018-09-28T12:32:01.804Z,8.43
2018-09-28T12:34:37.752Z,9.06
2018-09-28T12:37:13.542Z,8.51
2018-09-28T12:39:49.436Z,9.03
2018-09-28T12:42:25.811Z,7.77
2018-09-28T12:45:02.080Z,8.45
2018-09-28T12:47:38.024Z,8.86
2018-09-28T12:50:13.945Z,8.84
2018-09-28T12:52:50.088Z,9.43
2018-09-28T12:55:26.059Z,10.03
2018-09-28T12:58:02.016Z,9.68
2018-09-28T13:00:38.041Z,9.51
2018-09-28T13:03:14.126Z,9.59
2018-09-28T13:05:45.152Z,9.03
2018-09-28T13:08:16.024Z,9.37
2018-09-28T13:10:52.107Z,8.97
2018-09-28T13:13:28.073Z,8.18
2018-09-28T13:16:03.997Z,8.97
2018-09-28T13:18:41.595Z,9.09
2018-09-28T13:21:17.976Z,9.63
2018-09-28T13:23:54.165Z,10.02
2018-09-28T13:26:30.661Z,10.15
2018-09-28T13:29:06.859Z,9.55
2018-09-28T13:31:43.054Z,9.72
2018-09-28T13:34:18.814Z,9.09
2018-09-28T13:36:55.053Z,8.14
2018-09-28T13:39:30.880Z,7.39
2018-09-28T13:42:06.742Z,6.77
2018-09-28T13:44:42.599Z,6.66
2018-09-28T13:47:18.801Z,6.34
2018-09-28T13:49:54.619Z,6.40
2018-09-28T13:52:30.387Z,6.58
2018-09-28T13:55:07.115Z,7.09
2018-09-28T13:57:42.930Z,7.92
2018-09-28T14:00:18.764Z,7.61
2018-09-28T14:02:55.043Z,8.29
2018-09-28T14:05:30.975Z,7.44
2018-09-28T14:08:06.830Z,6.78
2018-09-28T14:10:42.935Z,6.75
2018-09-28T14:13:18.956Z,6.32
2018-09-28T14:15:54.868Z,6.74
2018-09-28T14:18:30.774Z,6.64
2018-09-28T14:21:07.033Z,7.24
2018-09-28T14:23:42.997Z,7.50
2018-09-28T14:26:18.858Z,7.18
2018-09-28T14:28:55.072Z,7.13
2018-09-28T14:31:31.126Z,7.24
2018-09-28T14:34:07.577Z,6.31
2018-09-28T14:36:43.589Z,7.28
2018-09-28T14:39:19.788Z,8.50
2018-09-28T14:41:55.563Z,9.66
2018-09-28T14:44:31.440Z,10.47
2018-09-28T14:47:07.694Z,11.37
2018-09-28T14:49:43.939Z,10.01
2018-09-28T14:52:19.712Z,10.44
2018-09-28T14:54:55.768Z,11.20
2018-09-28T14:57:31.873Z,11.77
2018-09-28T15:00:08.359Z,10.89
2018-09-28T15:02:44.670Z,10.80
2018-09-28T15:05:20.845Z,12.74
2018-09-28T15:07:56.717Z,11.83
2018-09-28T15:10:32.624Z,12.19
2018-09-28T15:13:08.786Z,12.21
2018-09-28T15:15:44.633Z,12.13
2018-09-28T15:18:20.473Z,12.43
2018-09-28T15:20:56.690Z,12.71
2018-09-28T15:23:32.617Z,14.20
2018-09-28T15:26:08.473Z,13.90
2018-09-28T15:28:44.244Z,14.55
2018-09-28T15:31:20.507Z,12.76
2018-09-28T15:33:56.412Z,14.88
2018-09-28T15:36:32.441Z,13.53
2018-09-28T15:39:10.844Z,15.28
2018-09-28T15:41:46.791Z,14.27
2018-09-28T15:44:22.625Z,15.17
2018-09-28T15:46:58.425Z,15.95
2018-09-28T15:49:34.216Z,15.11
2018-09-28T15:52:10.236Z,15.09
2018-09-28T15:54:46.114Z,15.38
2018-09-28T15:57:22.041Z,15.20
2018-09-28T15:59:57.861Z,15.36
2018-09-28T16:02:34.041Z,15.60
2018-09-28T16:05:09.973Z,15.18
2018-09-28T16:07:45.884Z,15.91
2018-09-28T16:10:21.649Z,15.87
2018-09-28T16:12:57.506Z,15.42
2018-09-28T16:15:33.876Z,15.92
2018-09-28T16:18:09.801Z,16.67
2018-09-28T16:20:45.756Z,16.57
2018-09-28T16:23:21.738Z,16.16
2018-09-28T16:25:57.516Z,17.11
2018-09-28T16:28:33.389Z,17.17
2018-09-28T16:31:09.229Z,17.09
2018-09-28T16:33:45.083Z,17.83
2018-09-28T16:36:20.851Z,17.98
2018-09-28T16:38:56.651Z,19.89
2018-09-28T16:41:32.607Z,19.78
2018-09-28T16:44:08.708Z,20.03
2018-09-28T16:46:44.567Z,21.09
2018-09-28T16:49:20.406Z,21.68
2018-09-28T16:51:56.205Z,23.85
2018-09-28T16:54:32.168Z,21.04
2018-09-28T16:57:07.882Z,24.45
2018-09-28T16:59:43.717Z,24.43
2018-09-28T17:02:19.518Z,26.41
2018-09-28T17:04:55.408Z,28.46
2018-09-28T17:07:33.989Z,27.48
2018-09-28T17:10:10.348Z,21.44
2018-09-28T17:12:46.114Z,25.80
2018-09-28T17:15:22.076Z,27.86
2018-09-28T17:17:57.946Z,23.32
2018-09-28T17:20:33.802Z,23.68
2018-09-28T17:23:09.614Z,23.90
2018-09-28T17:25:45.546Z,26.11
2018-09-28T17:28:21.520Z,29.28
2018-09-28T17:30:57.701Z,28.17
2018-09-28T17:33:33.508Z,28.48
2018-09-28T17:36:09.594Z,27.78
2018-09-28T17:38:45.377Z,25.72
2018-09-28T17:41:21.329Z,25.50
2018-09-28T17:43:57.476Z,25.90
2018-09-28T17:46:33.576Z,29.05
2018-09-28T17:49:09.470Z,27.33
2018-09-28T17:51:45.321Z,27.55
2018-09-28T17:54:21.087Z,27.67
2018-09-28T17:56:57.088Z,28.45
2018-09-28T17:59:33.104Z,29.40
2018-09-28T18:02:09.060Z,29.35
2018-09-28T18:04:44.841Z,28.77
2018-09-28T18:07:20.706Z,29.66
2018-09-28T18:09:56.500Z,30.07
2018-09-28T18:12:32.445Z,29.46
2018-09-28T18:15:08.402Z,30.87
2018-09-28T18:17:44.288Z,30.75
2018-09-28T18:20:23.113Z,30.16
2018-09-28T18:22:59.233Z,30.41
2018-09-28T18:25:35.223Z,32.23
2018-09-28T18:28:11.274Z,31.38
2018-09-28T18:30:47.388Z,33.81
2018-09-28T18:33:23.242Z,31.72
2018-09-28T18:35:59.413Z,33.27
2018-09-28T18:38:35.300Z,32.92
2018-09-28T18:41:11.077Z,33.13
2018-09-28T18:43:47.018Z,32.84
2018-09-28T18:46:22.974Z,33.40
2018-09-28T18:48:58.920Z,33.75
2018-09-28T18:51:34.781Z,34.31
2018-09-28T18:54:10.647Z,35.13
2018-09-28T18:56:47.471Z,33.61
2018-09-28T18:59:28.860Z,33.58
2018-09-28T19:02:05.154Z,34.32
2018-09-28T19:04:41.136Z,38.43
2018-09-28T19:07:17.106Z,36.55
2018-09-28T19:09:52.955Z,35.05
2018-09-28T19:12:28.790Z,35.56
2018-09-28T19:15:05.139Z,36.01
2018-09-28T19:17:35.418Z,35.10
2018-09-28T19:20:06.190Z,37.20
2018-09-28T19:22:36.456Z,37.19
2018-09-28T19:25:06.750Z,36.05
2018-09-28T19:27:37.058Z,35.81
2018-09-28T19:30:08.331Z,36.96
2018-09-28T19:32:39.291Z,38.53
2018-09-28T19:35:09.612Z,37.99
2018-09-28T19:37:39.926Z,37.99
2018-09-28T19:40:10.580Z,38.15
2018-09-28T19:42:40.850Z,39.88
2018-09-28T19:45:11.113Z,39.51
2018-09-28T19:47:41.455Z,40.39
2018-09-28T19:50:11.811Z,40.45
2018-09-28T19:52:42.070Z,40.27
2018-09-28T19:55:12.389Z,42.51
2018-09-28T19:57:42.700Z,41.65
2018-09-28T20:00:13.409Z,41.02
2018-09-28T20:02:43.695Z,41.82
2018-09-28T20:05:13.999Z,42.11
2018-09-28T20:07:44.373Z,42.60
2018-09-28T20:10:14.689Z,42.62
2018-09-28T20:12:45.008Z,41.59
2018-09-28T20:15:15.339Z,41.52
2018-09-28T20:17:45.606Z,40.62
2018-09-28T20:20:16.005Z,40.75
2018-09-28T20:22:46.422Z,42.02
2018-09-28T20:25:16.714Z,41.46
2018-09-28T20:27:46.992Z,42.60
2018-09-28T20:30:17.293Z,43.20
2018-09-28T20:32:47.620Z,44.08
2018-09-28T20:35:18.144Z,43.36
2018-09-28T20:37:48.415Z,44.12
2018-09-28T20:40:18.713Z,43.98
2018-09-28T20:42:49.085Z,43.83
2018-09-28T20:45:19.405Z,45.55
2018-09-28T20:47:49.689Z,43.96
2018-09-28T20:50:20.104Z,45.11
2018-09-28T20:52:50.449Z,44.87
2018-09-28T20:55:20.823Z,45.50
2018-09-28T20:57:51.563Z,46.03
2018-09-28T21:00:21.849Z,44.62
2018-09-28T21:02:52.165Z,44.74
2018-09-28T21:05:22.450Z,48.22
2018-09-28T21:07:53.293Z,46.68
2018-09-28T21:10:23.601Z,47.51
2018-09-28T21:12:53.909Z,46.65
2018-09-28T21:15:24.271Z,46.78
2018-09-28T21:17:54.569Z,46.64
2018-09-28T21:20:24.897Z,45.47
2018-09-28T21:22:55.226Z,46.06
2018-09-28T21:25:25.517Z,46.21
2018-09-28T21:27:55.833Z,47.21
2018-09-28T21:30:26.229Z,47.11
2018-09-28T21:32:56.518Z,45.83
2018-09-28T21:35:26.917Z,47.49
2018-09-28T21:37:57.439Z,48.31
2018-09-28T21:40:27.764Z,46.47
2018-09-28T21:42:58.168Z,45.90
2018-09-28T21:45:28.460Z,45.94
2018-09-28T21:47:58.795Z,45.32
2018-09-28T21:50:29.348Z,47.79
2018-09-28T21:52:59.753Z,44.53
2018-09-28T21:55:30.159Z,46.66
2018-09-28T21:58:00.459Z,45.66
2018-09-28T22:00:30.928Z,45.67
2018-09-28T22:03:01.251Z,45.93
2018-09-28T22:05:31.688Z,46.17
2018-09-28T22:08:02.050Z,46.18
2018-09-28T22:10:32.940Z,47.09
2018-09-28T22:13:03.249Z,46.21
2018-09-28T22:15:33.595Z,47.07
2018-09-28T22:18:04.433Z,47.60
2018-09-28T22:20:39.224Z,48.68
2018-09-28T22:23:09.788Z,49.41
2018-09-28T22:25:40.130Z,49.74
2018-09-28T22:28:13.980Z,49.41
2018-09-28T22:30:44.299Z,50.31
2018-09-28T22:33:14.610Z,51.07
2018-09-28T22:35:44.925Z,51.87
2018-09-28T22:38:15.309Z,51.57
2018-09-28T22:40:45.668Z,51.12
2018-09-28T22:43:15.928Z,50.63
2018-09-28T22:45:46.332Z,49.96
2018-09-28T22:48:16.644Z,50.28
2018-09-28T22:50:47.309Z,51.57
2018-09-28T22:53:17.601Z,51.28
2018-09-28T22:55:47.920Z,50.64
2018-09-28T22:58:18.233Z,51.01
2018-09-28T23:00:48.541Z,50.37
2018-09-28T23:03:18.854Z,50.26
2018-09-28T23:05:49.237Z,51.87
2018-09-28T23:08:19.496Z,51.61
2018-09-28T23:10:49.812Z,51.55
2018-09-28T23:13:20.143Z,51.59
2018-09-28T23:15:50.399Z,52.84
2018-09-28T23:18:20.669Z,53.77
2018-09-28T23:20:51.067Z,52.88
2018-09-28T23:23:21.792Z,52.16
2018-09-28T23:25:52.138Z,53.67
2018-09-28T23:28:22.408Z,54.12
2018-09-28T23:30:52.701Z,52.70
2018-09-28T23:33:23.015Z,53.37
2018-09-28T23:35:53.525Z,55.16
2018-09-28T23:38:23.801Z,53.53
2018-09-28T23:40:54.216Z,54.32
2018-09-28T23:43:24.514Z,55.00
2018-09-28T23:45:54.793Z,54.44
2018-09-28T23:48:25.144Z,53.75
2018-09-28T23:50:55.525Z,53.86
2018-09-28T23:53:25.798Z,53.12
2018-09-28T23:55:56.262Z,55.58
2018-09-28T23:58:26.530Z,54.04
